sensor_id;sensor_type;location;lat;lon;timestamp;P1;durP1;ratioP1;P2;durP2;ratioP2
67063;SDS011;58476;48.072;11.970;2023-04-22T00:01:34;2.45;;;1.48;;
67063;SDS011;58476;48.072;11.970;2023-04-22T00:04:00;2.95;;;1.35;;
67063;SDS011;58476;48.072;11.970;2023-04-22T00:06:25;3.40;;;1.55;;
67063;SDS011;58476;48.072;11.970;2023-04-22T00:08:50;3.25;;;1.50;;
67063;SDS011;58476;48.072;11.970;2023-04-22T00:11:16;1.67;;;1.40;;
67063;SDS011;58476;48.072;11.970;2023-04-22T00:13:41;2.75;;;1.50;;
67063;SDS011;58476;48.072;11.970;2023-04-22T00:16:06;1.80;;;1.42;;
67063;SDS011;58476;48.072;11.970;2023-04-22T00:18:36;2.50;;;1.60;;
67063;SDS011;58476;48.072;11.970;2023-04-22T00:21:02;4.97;;;1.63;;
67063;SDS011;58476;48.072;11.970;2023-04-22T00:23:28;1.98;;;1.52;;
67063;SDS011;58476;48.072;11.970;2023-04-22T00:25:53;2.67;;;1.77;;
67063;SDS011;58476;48.072;11.970;2023-04-22T00:28:19;2.25;;;1.30;;
67063;SDS011;58476;48.072;11.970;2023-04-22T00:30:44;1.65;;;1.38;;
67063;SDS011;58476;48.072;11.970;2023-04-22T00:33:09;2.50;;;1.70;;
67063;SDS011;58476;48.072;11.970;2023-04-22T00:35:35;1.50;;;1.40;;
67063;SDS011;58476;48.072;11.970;2023-04-22T00:38:00;1.88;;;1.58;;
67063;SDS011;58476;48.072;11.970;2023-04-22T00:40:25;2.17;;;1.55;;
67063;SDS011;58476;48.072;11.970;2023-04-22T00:42:51;3.13;;;1.75;;
67063;SDS011;58476;48.072;11.970;2023-04-22T00:45:19;2.22;;;1.75;;
67063;SDS011;58476;48.072;11.970;2023-04-22T00:47:45;2.20;;;1.73;;
67063;SDS011;58476;48.072;11.970;2023-04-22T00:50:11;1.67;;;1.58;;
67063;SDS011;58476;48.072;11.970;2023-04-22T00:52:37;4.07;;;1.77;;
67063;SDS011;58476;48.072;11.970;2023-04-22T00:55:03;1.77;;;1.42;;
67063;SDS011;58476;48.072;11.970;2023-04-22T00:57:29;2.13;;;1.60;;
67063;SDS011;58476;48.072;11.970;2023-04-22T00:59:55;1.60;;;1.50;;
67063;SDS011;58476;48.072;11.970;2023-04-22T01:02:20;1.70;;;1.45;;
67063;SDS011;58476;48.072;11.970;2023-04-22T01:04:45;1.50;;;1.40;;
67063;SDS011;58476;48.072;11.970;2023-04-22T01:07:11;1.60;;;1.50;;
67063;SDS011;58476;48.072;11.970;2023-04-22T01:09:36;1.60;;;1.50;;
67063;SDS011;58476;48.072;11.970;2023-04-22T01:12:02;4.63;;;1.83;;
67063;SDS011;58476;48.072;11.970;2023-04-22T01:14:28;1.98;;;1.40;;
67063;SDS011;58476;48.072;11.970;2023-04-22T01:16:53;2.03;;;1.60;;
67063;SDS011;58476;48.072;11.970;2023-04-22T01:19:19;1.70;;;1.60;;
67063;SDS011;58476;48.072;11.970;2023-04-22T01:21:45;1.75;;;1.48;;
67063;SDS011;58476;48.072;11.970;2023-04-22T01:24:11;4.28;;;1.50;;
67063;SDS011;58476;48.072;11.970;2023-04-22T01:26:37;1.88;;;1.50;;
67063;SDS011;58476;48.072;11.970;2023-04-22T01:29:03;1.95;;;1.67;;
67063;SDS011;58476;48.072;11.970;2023-04-22T01:31:29;1.60;;;1.50;;
67063;SDS011;58476;48.072;11.970;2023-04-22T01:33:55;3.38;;;1.40;;
67063;SDS011;58476;48.072;11.970;2023-04-22T01:36:21;1.77;;;1.50;;
67063;SDS011;58476;48.072;11.970;2023-04-22T01:38:47;1.55;;;1.45;;
67063;SDS011;58476;48.072;11.970;2023-04-22T01:41:12;2.72;;;1.50;;
67063;SDS011;58476;48.072;11.970;2023-04-22T01:43:38;1.52;;;1.42;;
67063;SDS011;58476;48.072;11.970;2023-04-22T01:46:03;2.50;;;1.60;;
67063;SDS011;58476;48.072;11.970;2023-04-22T01:48:30;1.50;;;1.40;;
67063;SDS011;58476;48.072;11.970;2023-04-22T01:50:55;1.58;;;1.40;;
67063;SDS011;58476;48.072;11.970;2023-04-22T01:53:21;2.28;;;1.50;;
67063;SDS011;58476;48.072;11.970;2023-04-22T01:55:46;1.60;;;1.50;;
67063;SDS011;58476;48.072;11.970;2023-04-22T01:58:12;1.40;;;1.30;;
67063;SDS011;58476;48.072;11.970;2023-04-22T02:00:38;2.03;;;1.42;;
67063;SDS011;58476;48.072;11.970;2023-04-22T02:03:03;1.55;;;1.45;;
67063;SDS011;58476;48.072;11.970;2023-04-22T02:05:29;1.60;;;1.50;;
67063;SDS011;58476;48.072;11.970;2023-04-22T02:07:54;1.77;;;1.60;;
67063;SDS011;58476;48.072;11.970;2023-04-22T02:10:20;1.63;;;1.52;;
67063;SDS011;58476;48.072;11.970;2023-04-22T02:12:45;1.75;;;1.40;;
67063;SDS011;58476;48.072;11.970;2023-04-22T02:15:12;1.77;;;1.42;;
67063;SDS011;58476;48.072;11.970;2023-04-22T02:17:39;1.50;;;1.40;;
67063;SDS011;58476;48.072;11.970;2023-04-22T02:20:06;1.60;;;1.50;;
67063;SDS011;58476;48.072;11.970;2023-04-22T02:22:31;2.85;;;1.45;;
67063;SDS011;58476;48.072;11.970;2023-04-22T02:24:57;1.60;;;1.50;;
67063;SDS011;58476;48.072;11.970;2023-04-22T02:27:22;1.83;;;1.50;;
67063;SDS011;58476;48.072;11.970;2023-04-22T02:29:48;2.65;;;1.42;;
67063;SDS011;58476;48.072;11.970;2023-04-22T02:32:15;1.83;;;1.50;;
67063;SDS011;58476;48.072;11.970;2023-04-22T02:34:41;1.40;;;1.30;;
67063;SDS011;58476;48.072;11.970;2023-04-22T02:37:06;1.60;;;1.35;;
67063;SDS011;58476;48.072;11.970;2023-04-22T02:39:32;1.52;;;1.40;;
67063;SDS011;58476;48.072;11.970;2023-04-22T02:41:57;1.80;;;1.55;;
67063;SDS011;58476;48.072;11.970;2023-04-22T02:44:23;1.60;;;1.50;;
67063;SDS011;58476;48.072;11.970;2023-04-22T02:46:48;1.40;;;1.30;;
67063;SDS011;58476;48.072;11.970;2023-04-22T02:49:14;2.20;;;1.73;;
67063;SDS011;58476;48.072;11.970;2023-04-22T02:51:39;1.58;;;1.48;;
67063;SDS011;58476;48.072;11.970;2023-04-22T02:54:04;1.30;;;1.20;;
67063;SDS011;58476;48.072;11.970;2023-04-22T02:56:30;1.73;;;1.48;;
67063;SDS011;58476;48.072;11.970;2023-04-22T02:58:55;2.03;;;1.63;;
67063;SDS011;58476;48.072;11.970;2023-04-22T03:01:21;1.35;;;1.23;;
67063;SDS011;58476;48.072;11.970;2023-04-22T03:03:46;1.40;;;1.30;;
67063;SDS011;58476;48.072;11.970;2023-04-22T03:06:17;1.30;;;1.20;;
67063;SDS011;58476;48.072;11.970;2023-04-22T03:08:42;2.08;;;1.40;;
67063;SDS011;58476;48.072;11.970;2023-04-22T03:11:08;1.50;;;1.40;;
67063;SDS011;58476;48.072;11.970;2023-04-22T03:13:34;1.38;;;1.20;;
67063;SDS011;58476;48.072;11.970;2023-04-22T03:15:59;1.40;;;1.30;;
67063;SDS011;58476;48.072;11.970;2023-04-22T03:18:24;1.33;;;1.23;;
67063;SDS011;58476;48.072;11.970;2023-04-22T03:20:50;1.55;;;1.15;;
67063;SDS011;58476;48.072;11.970;2023-04-22T03:23:16;2.67;;;1.55;;
67063;SDS011;58476;48.072;11.970;2023-04-22T03:25:41;1.33;;;1.20;;
67063;SDS011;58476;48.072;11.970;2023-04-22T03:28:07;1.30;;;1.27;;
67063;SDS011;58476;48.072;11.970;2023-04-22T03:30:33;1.08;;;1.02;;
67063;SDS011;58476;48.072;11.970;2023-04-22T03:32:58;1.20;;;1.13;;
67063;SDS011;58476;48.072;11.970;2023-04-22T03:35:37;1.30;;;1.17;;
67063;SDS011;58476;48.072;11.970;2023-04-22T03:38:02;1.00;;;1.00;;
67063;SDS011;58476;48.072;11.970;2023-04-22T03:40:31;1.23;;;1.13;;
67063;SDS011;58476;48.072;11.970;2023-04-22T03:42:58;3.08;;;1.30;;
67063;SDS011;58476;48.072;11.970;2023-04-22T03:45:23;1.65;;;1.10;;
67063;SDS011;58476;48.072;11.970;2023-04-22T03:48:01;1.13;;;1.10;;
67063;SDS011;58476;48.072;11.970;2023-04-22T03:50:35;1.77;;;1.33;;
67063;SDS011;58476;48.072;11.970;2023-04-22T03:53:00;1.10;;;1.00;;
67063;SDS011;58476;48.072;11.970;2023-04-22T03:55:25;1.42;;;1.20;;
67063;SDS011;58476;48.072;11.970;2023-04-22T03:57:52;1.40;;;1.30;;
67063;SDS011;58476;48.072;11.970;2023-04-22T04:00:18;1.10;;;1.10;;
67063;SDS011;58476;48.072;11.970;2023-04-22T04:02:50;1.30;;;1.20;;
67063;SDS011;58476;48.072;11.970;2023-04-22T04:05:18;1.00;;;1.00;;
67063;SDS011;58476;48.072;11.970;2023-04-22T04:07:43;1.05;;;1.02;;
67063;SDS011;58476;48.072;11.970;2023-04-22T04:10:09;1.10;;;1.10;;
67063;SDS011;58476;48.072;11.970;2023-04-22T04:12:35;2.13;;;1.20;;
67063;SDS011;58476;48.072;11.970;2023-04-22T04:15:00;1.20;;;1.10;;
67063;SDS011;58476;48.072;11.970;2023-04-22T04:17:26;1.08;;;1.08;;
67063;SDS011;58476;48.072;11.970;2023-04-22T04:19:52;1.20;;;1.10;;
67063;SDS011;58476;48.072;11.970;2023-04-22T04:22:19;1.30;;;1.17;;
67063;SDS011;58476;48.072;11.970;2023-04-22T04:24:51;0.90;;;0.90;;
67063;SDS011;58476;48.072;11.970;2023-04-22T04:27:21;1.45;;;1.10;;
67063;SDS011;58476;48.072;11.970;2023-04-22T04:29:50;1.17;;;1.08;;
67063;SDS011;58476;48.072;11.970;2023-04-22T04:32:25;1.20;;;1.10;;
67063;SDS011;58476;48.072;11.970;2023-04-22T04:34:50;0.82;;;0.82;;
67063;SDS011;58476;48.072;11.970;2023-04-22T04:37:16;2.42;;;1.20;;
67063;SDS011;58476;48.072;11.970;2023-04-22T04:39:56;1.00;;;1.00;;
67063;SDS011;58476;48.072;11.970;2023-04-22T04:42:24;1.17;;;1.15;;
67063;SDS011;58476;48.072;11.970;2023-04-22T04:44:57;0.90;;;0.90;;
67063;SDS011;58476;48.072;11.970;2023-04-22T04:47:23;0.90;;;0.90;;
67063;SDS011;58476;48.072;11.970;2023-04-22T04:49:52;1.00;;;1.00;;
67063;SDS011;58476;48.072;11.970;2023-04-22T04:52:17;1.08;;;0.98;;
67063;SDS011;58476;48.072;11.970;2023-04-22T04:54:43;2.72;;;1.10;;
67063;SDS011;58476;48.072;11.970;2023-04-22T04:57:08;1.10;;;1.00;;
67063;SDS011;58476;48.072;11.970;2023-04-22T04:59:34;1.92;;;1.23;;
67063;SDS011;58476;48.072;11.970;2023-04-22T05:02:00;2.17;;;1.27;;
67063;SDS011;58476;48.072;11.970;2023-04-22T05:04:27;1.20;;;1.10;;
67063;SDS011;58476;48.072;11.970;2023-04-22T05:06:52;0.80;;;0.80;;
67063;SDS011;58476;48.072;11.970;2023-04-22T05:09:18;1.60;;;1.10;;
67063;SDS011;58476;48.072;11.970;2023-04-22T05:11:46;1.67;;;1.10;;
67063;SDS011;58476;48.072;11.970;2023-04-22T05:14:18;1.30;;;1.10;;
67063;SDS011;58476;48.072;11.970;2023-04-22T05:16:44;2.53;;;0.95;;
67063;SDS011;58476;48.072;11.970;2023-04-22T05:19:11;1.70;;;1.20;;
67063;SDS011;58476;48.072;11.970;2023-04-22T05:21:36;1.25;;;1.00;;
67063;SDS011;58476;48.072;11.970;2023-04-22T05:24:02;3.08;;;1.20;;
67063;SDS011;58476;48.072;11.970;2023-04-22T05:26:28;5.10;;;1.10;;
67063;SDS011;58476;48.072;11.970;2023-04-22T05:28:53;5.38;;;1.13;;
67063;SDS011;58476;48.072;11.970;2023-04-22T05:31:20;1.85;;;0.98;;
67063;SDS011;58476;48.072;11.970;2023-04-22T05:33:46;3.92;;;1.30;;
67063;SDS011;58476;48.072;11.970;2023-04-22T05:36:11;4.40;;;1.08;;
67063;SDS011;58476;48.072;11.970;2023-04-22T05:38:36;3.25;;;1.10;;
67063;SDS011;58476;48.072;11.970;2023-04-22T05:41:03;3.70;;;1.13;;
67063;SDS011;58476;48.072;11.970;2023-04-22T05:43:29;5.32;;;1.08;;
67063;SDS011;58476;48.072;11.970;2023-04-22T05:46:02;5.90;;;1.15;;
67063;SDS011;58476;48.072;11.970;2023-04-22T05:48:27;5.70;;;1.30;;
67063;SDS011;58476;48.072;11.970;2023-04-22T05:50:58;4.55;;;1.10;;
67063;SDS011;58476;48.072;11.970;2023-04-22T05:53:26;3.25;;;1.25;;
67063;SDS011;58476;48.072;11.970;2023-04-22T05:55:52;7.78;;;1.20;;
67063;SDS011;58476;48.072;11.970;2023-04-22T05:58:17;6.30;;;1.00;;
67063;SDS011;58476;48.072;11.970;2023-04-22T06:00:48;4.22;;;1.00;;
67063;SDS011;58476;48.072;11.970;2023-04-22T06:03:32;2.63;;;1.02;;
67063;SDS011;58476;48.072;11.970;2023-04-22T06:05:58;2.83;;;1.20;;
67063;SDS011;58476;48.072;11.970;2023-04-22T06:08:23;2.00;;;0.90;;
67063;SDS011;58476;48.072;11.970;2023-04-22T06:10:49;3.42;;;0.90;;
67063;SDS011;58476;48.072;11.970;2023-04-22T06:13:15;1.70;;;1.02;;
67063;SDS011;58476;48.072;11.970;2023-04-22T06:15:40;4.35;;;1.00;;
67063;SDS011;58476;48.072;11.970;2023-04-22T06:18:06;4.28;;;1.00;;
67063;SDS011;58476;48.072;11.970;2023-04-22T06:20:31;4.85;;;1.20;;
67063;SDS011;58476;48.072;11.970;2023-04-22T06:22:56;4.93;;;1.00;;
67063;SDS011;58476;48.072;11.970;2023-04-22T06:25:22;1.63;;;0.90;;
67063;SDS011;58476;48.072;11.970;2023-04-22T06:27:48;1.15;;;1.05;;
67063;SDS011;58476;48.072;11.970;2023-04-22T06:30:13;1.33;;;1.00;;
67063;SDS011;58476;48.072;11.970;2023-04-22T06:32:39;9.68;;;1.30;;
67063;SDS011;58476;48.072;11.970;2023-04-22T06:35:04;5.00;;;1.38;;
67063;SDS011;58476;48.072;11.970;2023-04-22T06:37:30;2.25;;;1.23;;
67063;SDS011;58476;48.072;11.970;2023-04-22T06:39:55;2.72;;;1.00;;
67063;SDS011;58476;48.072;11.970;2023-04-22T06:42:40;4.80;;;1.17;;
67063;SDS011;58476;48.072;11.970;2023-04-22T06:45:24;4.65;;;1.63;;
67063;SDS011;58476;48.072;11.970;2023-04-22T06:48:17;3.63;;;1.10;;
67063;SDS011;58476;48.072;11.970;2023-04-22T06:51:02;3.75;;;1.20;;
67063;SDS011;58476;48.072;11.970;2023-04-22T06:53:29;9.57;;;1.83;;
67063;SDS011;58476;48.072;11.970;2023-04-22T06:55:55;2.67;;;1.08;;
67063;SDS011;58476;48.072;11.970;2023-04-22T06:58:20;7.70;;;1.27;;
67063;SDS011;58476;48.072;11.970;2023-04-22T07:00:47;3.58;;;1.38;;
67063;SDS011;58476;48.072;11.970;2023-04-22T07:03:12;7.10;;;1.30;;
67063;SDS011;58476;48.072;11.970;2023-04-22T07:05:37;3.75;;;1.38;;
67063;SDS011;58476;48.072;11.970;2023-04-22T07:08:03;5.50;;;1.23;;
67063;SDS011;58476;48.072;11.970;2023-04-22T07:10:28;6.30;;;1.13;;
67063;SDS011;58476;48.072;11.970;2023-04-22T07:13:16;4.22;;;1.42;;
67063;SDS011;58476;48.072;11.970;2023-04-22T07:15:42;6.22;;;1.23;;
67063;SDS011;58476;48.072;11.970;2023-04-22T07:18:07;6.65;;;1.77;;
67063;SDS011;58476;48.072;11.970;2023-04-22T07:20:32;7.55;;;1.23;;
67063;SDS011;58476;48.072;11.970;2023-04-22T07:22:58;3.90;;;1.00;;
67063;SDS011;58476;48.072;11.970;2023-04-22T07:25:23;6.80;;;1.30;;
67063;SDS011;58476;48.072;11.970;2023-04-22T07:27:49;4.65;;;1.20;;
67063;SDS011;58476;48.072;11.970;2023-04-22T07:30:14;3.10;;;1.27;;
67063;SDS011;58476;48.072;11.970;2023-04-22T07:32:39;4.50;;;1.40;;
67063;SDS011;58476;48.072;11.970;2023-04-22T07:35:05;3.15;;;1.05;;
67063;SDS011;58476;48.072;11.970;2023-04-22T07:37:31;3.17;;;1.30;;
67063;SDS011;58476;48.072;11.970;2023-04-22T07:39:56;2.53;;;1.00;;
67063;SDS011;58476;48.072;11.970;2023-04-22T07:42:21;5.65;;;1.17;;
67063;SDS011;58476;48.072;11.970;2023-04-22T07:44:47;4.80;;;1.10;;
67063;SDS011;58476;48.072;11.970;2023-04-22T07:47:12;2.42;;;1.17;;
67063;SDS011;58476;48.072;11.970;2023-04-22T07:49:37;3.65;;;0.90;;
67063;SDS011;58476;48.072;11.970;2023-04-22T07:52:03;7.57;;;1.20;;
67063;SDS011;58476;48.072;11.970;2023-04-22T07:54:28;7.10;;;1.38;;
67063;SDS011;58476;48.072;11.970;2023-04-22T07:56:53;4.25;;;1.40;;
67063;SDS011;58476;48.072;11.970;2023-04-22T07:59:19;1.85;;;1.10;;
67063;SDS011;58476;48.072;11.970;2023-04-22T08:01:44;5.30;;;1.08;;
67063;SDS011;58476;48.072;11.970;2023-04-22T08:04:09;1.42;;;0.85;;
67063;SDS011;58476;48.072;11.970;2023-04-22T08:06:35;3.15;;;1.00;;
67063;SDS011;58476;48.072;11.970;2023-04-22T08:09:00;4.40;;;1.02;;
67063;SDS011;58476;48.072;11.970;2023-04-22T08:11:25;4.75;;;1.30;;
67063;SDS011;58476;48.072;11.970;2023-04-22T08:13:51;4.93;;;1.15;;
67063;SDS011;58476;48.072;11.970;2023-04-22T08:16:16;3.95;;;1.10;;
67063;SDS011;58476;48.072;11.970;2023-04-22T08:18:42;6.30;;;1.00;;
67063;SDS011;58476;48.072;11.970;2023-04-22T08:21:07;16.17;;;1.60;;
67063;SDS011;58476;48.072;11.970;2023-04-22T08:23:33;5.55;;;1.30;;
67063;SDS011;58476;48.072;11.970;2023-04-22T08:25:58;8.50;;;1.40;;
67063;SDS011;58476;48.072;11.970;2023-04-22T08:28:23;8.15;;;1.38;;
67063;SDS011;58476;48.072;11.970;2023-04-22T08:30:49;10.70;;;1.48;;
67063;SDS011;58476;48.072;11.970;2023-04-22T08:33:15;7.55;;;1.98;;
67063;SDS011;58476;48.072;11.970;2023-04-22T08:35:41;15.48;;;2.42;;
67063;SDS011;58476;48.072;11.970;2023-04-22T08:38:06;9.35;;;1.70;;
67063;SDS011;58476;48.072;11.970;2023-04-22T08:40:32;10.45;;;1.60;;
67063;SDS011;58476;48.072;11.970;2023-04-22T08:42:58;10.82;;;1.70;;
67063;SDS011;58476;48.072;11.970;2023-04-22T08:45:23;9.27;;;1.70;;
67063;SDS011;58476;48.072;11.970;2023-04-22T08:47:49;8.55;;;1.50;;
67063;SDS011;58476;48.072;11.970;2023-04-22T08:50:15;13.95;;;1.55;;
67063;SDS011;58476;48.072;11.970;2023-04-22T08:52:43;15.63;;;1.60;;
67063;SDS011;58476;48.072;11.970;2023-04-22T08:55:08;10.50;;;1.55;;
67063;SDS011;58476;48.072;11.970;2023-04-22T08:57:37;9.45;;;1.95;;
67063;SDS011;58476;48.072;11.970;2023-04-22T09:00:04;8.17;;;1.20;;
67063;SDS011;58476;48.072;11.970;2023-04-22T09:02:31;6.15;;;1.50;;
67063;SDS011;58476;48.072;11.970;2023-04-22T09:04:56;12.73;;;1.70;;
67063;SDS011;58476;48.072;11.970;2023-04-22T09:07:23;11.00;;;1.50;;
67063;SDS011;58476;48.072;11.970;2023-04-22T09:09:51;8.77;;;1.60;;
67063;SDS011;58476;48.072;11.970;2023-04-22T09:12:17;6.13;;;1.40;;
67063;SDS011;58476;48.072;11.970;2023-04-22T09:14:42;5.75;;;1.30;;
67063;SDS011;58476;48.072;11.970;2023-04-22T09:17:08;11.38;;;1.40;;
67063;SDS011;58476;48.072;11.970;2023-04-22T09:19:34;4.60;;;1.30;;
67063;SDS011;58476;48.072;11.970;2023-04-22T09:21:59;11.65;;;1.90;;
67063;SDS011;58476;48.072;11.970;2023-04-22T09:24:24;2.38;;;1.17;;
67063;SDS011;58476;48.072;11.970;2023-04-22T09:26:50;9.88;;;1.30;;
67063;SDS011;58476;48.072;11.970;2023-04-22T09:29:15;5.15;;;1.40;;
67063;SDS011;58476;48.072;11.970;2023-04-22T09:31:41;9.25;;;1.30;;
67063;SDS011;58476;48.072;11.970;2023-04-22T09:34:07;7.13;;;1.17;;
67063;SDS011;58476;48.072;11.970;2023-04-22T09:36:32;6.72;;;2.10;;
67063;SDS011;58476;48.072;11.970;2023-04-22T09:39:02;6.85;;;2.20;;
67063;SDS011;58476;48.072;11.970;2023-04-22T09:41:30;4.90;;;1.02;;
67063;SDS011;58476;48.072;11.970;2023-04-22T09:44:00;5.32;;;1.25;;
67063;SDS011;58476;48.072;11.970;2023-04-22T09:46:28;7.30;;;2.10;;
67063;SDS011;58476;48.072;11.970;2023-04-22T09:48:55;5.85;;;1.10;;
67063;SDS011;58476;48.072;11.970;2023-04-22T09:51:21;7.95;;;1.20;;
67063;SDS011;58476;48.072;11.970;2023-04-22T09:53:56;4.80;;;1.20;;
67063;SDS011;58476;48.072;11.970;2023-04-22T09:56:39;6.75;;;1.40;;
67063;SDS011;58476;48.072;11.970;2023-04-22T09:59:09;6.05;;;1.10;;
67063;SDS011;58476;48.072;11.970;2023-04-22T10:01:38;5.88;;;1.00;;
67063;SDS011;58476;48.072;11.970;2023-04-22T10:04:04;5.03;;;1.10;;
67063;SDS011;58476;48.072;11.970;2023-04-22T10:06:29;5.25;;;1.10;;
67063;SDS011;58476;48.072;11.970;2023-04-22T10:08:55;4.03;;;1.10;;
67063;SDS011;58476;48.072;11.970;2023-04-22T10:11:22;8.13;;;1.42;;
67063;SDS011;58476;48.072;11.970;2023-04-22T10:13:48;8.05;;;1.40;;
67063;SDS011;58476;48.072;11.970;2023-04-22T10:16:14;7.57;;;1.17;;
67063;SDS011;58476;48.072;11.970;2023-04-22T10:18:39;7.90;;;1.10;;
67063;SDS011;58476;48.072;11.970;2023-04-22T10:21:05;3.83;;;1.10;;
67063;SDS011;58476;48.072;11.970;2023-04-22T10:23:31;6.38;;;1.10;;
67063;SDS011;58476;48.072;11.970;2023-04-22T10:25:57;4.95;;;1.15;;
67063;SDS011;58476;48.072;11.970;2023-04-22T10:28:23;8.50;;;1.50;;
67063;SDS011;58476;48.072;11.970;2023-04-22T10:30:52;11.63;;;2.00;;
67063;SDS011;58476;48.072;11.970;2023-04-22T10:38:36;7.18;;;1.40;;
67063;SDS011;58476;48.072;11.970;2023-04-22T10:41:03;10.75;;;1.50;;
67063;SDS011;58476;48.072;11.970;2023-04-22T10:46:06;13.30;;;1.98;;
67063;SDS011;58476;48.072;11.970;2023-04-22T10:48:54;8.38;;;1.20;;
67063;SDS011;58476;48.072;11.970;2023-04-22T10:51:40;10.68;;;1.50;;
67063;SDS011;58476;48.072;11.970;2023-04-22T10:57:07;6.93;;;1.67;;
67063;SDS011;58476;48.072;11.970;2023-04-22T10:59:40;7.45;;;1.45;;
67063;SDS011;58476;48.072;11.970;2023-04-22T11:02:10;5.68;;;1.67;;
67063;SDS011;58476;48.072;11.970;2023-04-22T11:04:37;13.10;;;2.00;;
67063;SDS011;58476;48.072;11.970;2023-04-22T11:07:16;13.60;;;1.90;;
67063;SDS011;58476;48.072;11.970;2023-04-22T11:10:01;6.93;;;2.08;;
67063;SDS011;58476;48.072;11.970;2023-04-22T11:15:04;8.60;;;1.60;;
67063;SDS011;58476;48.072;11.970;2023-04-22T11:17:30;7.03;;;1.27;;
67063;SDS011;58476;48.072;11.970;2023-04-22T11:19:56;11.80;;;1.70;;
67063;SDS011;58476;48.072;11.970;2023-04-22T11:22:24;5.80;;;1.58;;
67063;SDS011;58476;48.072;11.970;2023-04-22T11:27:22;12.60;;;1.60;;
67063;SDS011;58476;48.072;11.970;2023-04-22T11:29:58;10.65;;;1.92;;
67063;SDS011;58476;48.072;11.970;2023-04-22T11:32:36;2.88;;;1.52;;
67063;SDS011;58476;48.072;11.970;2023-04-22T11:40:09;5.40;;;1.95;;
67063;SDS011;58476;48.072;11.970;2023-04-22T11:42:36;14.95;;;2.20;;
67063;SDS011;58476;48.072;11.970;2023-04-22T11:45:02;12.95;;;1.73;;
67063;SDS011;58476;48.072;11.970;2023-04-22T11:47:30;16.45;;;1.60;;
67063;SDS011;58476;48.072;11.970;2023-04-22T11:49:58;7.72;;;1.92;;
67063;SDS011;58476;48.072;11.970;2023-04-22T11:52:24;8.05;;;1.40;;
67063;SDS011;58476;48.072;11.970;2023-04-22T11:55:03;5.20;;;1.15;;
67063;SDS011;58476;48.072;11.970;2023-04-22T11:57:32;3.95;;;1.10;;
67063;SDS011;58476;48.072;11.970;2023-04-22T12:00:00;5.13;;;1.10;;
67063;SDS011;58476;48.072;11.970;2023-04-22T12:02:25;5.72;;;1.20;;
67063;SDS011;58476;48.072;11.970;2023-04-22T12:04:50;13.50;;;1.45;;
67063;SDS011;58476;48.072;11.970;2023-04-22T12:07:16;10.20;;;1.30;;
67063;SDS011;58476;48.072;11.970;2023-04-22T12:09:41;6.90;;;1.13;;
67063;SDS011;58476;48.072;11.970;2023-04-22T12:12:06;16.42;;;1.63;;
67063;SDS011;58476;48.072;11.970;2023-04-22T12:14:32;8.70;;;1.10;;
67063;SDS011;58476;48.072;11.970;2023-04-22T12:17:02;12.60;;;1.63;;
67063;SDS011;58476;48.072;11.970;2023-04-22T12:19:28;2.80;;;1.38;;
67063;SDS011;58476;48.072;11.970;2023-04-22T12:21:54;5.38;;;1.42;;
67063;SDS011;58476;48.072;11.970;2023-04-22T12:24:20;8.13;;;1.48;;
67063;SDS011;58476;48.072;11.970;2023-04-22T12:26:51;7.43;;;1.23;;
67063;SDS011;58476;48.072;11.970;2023-04-22T12:29:16;7.20;;;1.20;;
67063;SDS011;58476;48.072;11.970;2023-04-22T12:31:51;5.50;;;1.20;;
67063;SDS011;58476;48.072;11.970;2023-04-22T12:34:16;5.38;;;1.40;;
67063;SDS011;58476;48.072;11.970;2023-04-22T12:36:41;5.90;;;1.20;;
67063;SDS011;58476;48.072;11.970;2023-04-22T12:39:07;5.15;;;1.30;;
67063;SDS011;58476;48.072;11.970;2023-04-22T12:41:32;7.00;;;1.50;;
67063;SDS011;58476;48.072;11.970;2023-04-22T12:43:57;3.40;;;1.15;;
67063;SDS011;58476;48.072;11.970;2023-04-22T12:46:23;6.95;;;1.30;;
67063;SDS011;58476;48.072;11.970;2023-04-22T12:48:48;7.88;;;1.73;;
67063;SDS011;58476;48.072;11.970;2023-04-22T12:51:13;4.10;;;1.23;;
67063;SDS011;58476;48.072;11.970;2023-04-22T12:53:39;6.35;;;1.20;;
67063;SDS011;58476;48.072;11.970;2023-04-22T12:56:04;3.60;;;1.27;;
67063;SDS011;58476;48.072;11.970;2023-04-22T12:58:29;5.65;;;1.35;;
67063;SDS011;58476;48.072;11.970;2023-04-22T13:00:55;3.53;;;1.48;;
67063;SDS011;58476;48.072;11.970;2023-04-22T13:03:20;4.15;;;1.45;;
67063;SDS011;58476;48.072;11.970;2023-04-22T13:05:45;3.40;;;1.05;;
67063;SDS011;58476;48.072;11.970;2023-04-22T13:08:11;1.55;;;1.10;;
67063;SDS011;58476;48.072;11.970;2023-04-22T13:10:36;1.52;;;0.98;;
67063;SDS011;58476;48.072;11.970;2023-04-22T13:13:01;6.15;;;1.25;;
67063;SDS011;58476;48.072;11.970;2023-04-22T13:15:27;2.90;;;1.15;;
67063;SDS011;58476;48.072;11.970;2023-04-22T13:17:52;1.98;;;1.20;;
67063;SDS011;58476;48.072;11.970;2023-04-22T13:20:17;2.70;;;1.10;;
67063;SDS011;58476;48.072;11.970;2023-04-22T13:22:43;5.70;;;1.25;;
67063;SDS011;58476;48.072;11.970;2023-04-22T13:25:08;3.05;;;1.17;;
67063;SDS011;58476;48.072;11.970;2023-04-22T13:27:34;7.85;;;1.20;;
67063;SDS011;58476;48.072;11.970;2023-04-22T13:29:59;3.65;;;1.10;;
67063;SDS011;58476;48.072;11.970;2023-04-22T13:32:25;4.43;;;1.20;;
67063;SDS011;58476;48.072;11.970;2023-04-22T13:34:50;5.90;;;1.20;;
67063;SDS011;58476;48.072;11.970;2023-04-22T13:37:15;5.13;;;1.30;;
67063;SDS011;58476;48.072;11.970;2023-04-22T13:39:41;2.13;;;1.15;;
67063;SDS011;58476;48.072;11.970;2023-04-22T13:42:06;4.85;;;1.30;;
67063;SDS011;58476;48.072;11.970;2023-04-22T13:44:31;10.20;;;1.45;;
67063;SDS011;58476;48.072;11.970;2023-04-22T13:46:57;8.30;;;1.45;;
67063;SDS011;58476;48.072;11.970;2023-04-22T13:49:22;4.88;;;1.15;;
67063;SDS011;58476;48.072;11.970;2023-04-22T13:51:47;8.45;;;1.10;;
67063;SDS011;58476;48.072;11.970;2023-04-22T13:54:13;6.70;;;1.50;;
67063;SDS011;58476;48.072;11.970;2023-04-22T13:56:38;13.20;;;1.30;;
67063;SDS011;58476;48.072;11.970;2023-04-22T13:59:04;6.93;;;1.17;;
67063;SDS011;58476;48.072;11.970;2023-04-22T14:01:29;8.20;;;1.50;;
67063;SDS011;58476;48.072;11.970;2023-04-22T14:03:54;3.75;;;0.80;;
67063;SDS011;58476;48.072;11.970;2023-04-22T14:06:20;6.70;;;1.10;;
67063;SDS011;58476;48.072;11.970;2023-04-22T14:08:46;5.10;;;1.30;;
67063;SDS011;58476;48.072;11.970;2023-04-22T14:11:11;12.27;;;1.27;;
67063;SDS011;58476;48.072;11.970;2023-04-22T14:13:37;2.60;;;1.10;;
67063;SDS011;58476;48.072;11.970;2023-04-22T14:16:03;9.43;;;1.90;;
67063;SDS011;58476;48.072;11.970;2023-04-22T14:18:29;5.63;;;1.10;;
67063;SDS011;58476;48.072;11.970;2023-04-22T14:20:54;2.50;;;1.00;;
67063;SDS011;58476;48.072;11.970;2023-04-22T14:23:20;3.88;;;1.17;;
67063;SDS011;58476;48.072;11.970;2023-04-22T14:25:46;2.80;;;1.00;;
67063;SDS011;58476;48.072;11.970;2023-04-22T14:28:13;5.85;;;1.10;;
67063;SDS011;58476;48.072;11.970;2023-04-22T14:30:39;5.32;;;1.52;;
67063;SDS011;58476;48.072;11.970;2023-04-22T14:33:05;3.97;;;1.05;;
67063;SDS011;58476;48.072;11.970;2023-04-22T14:35:30;4.10;;;0.82;;
67063;SDS011;58476;48.072;11.970;2023-04-22T14:37:55;6.40;;;0.90;;
67063;SDS011;58476;48.072;11.970;2023-04-22T14:40:21;4.40;;;1.83;;
67063;SDS011;58476;48.072;11.970;2023-04-22T14:42:46;3.03;;;1.20;;
67063;SDS011;58476;48.072;11.970;2023-04-22T14:45:11;3.40;;;1.10;;
67063;SDS011;58476;48.072;11.970;2023-04-22T14:47:38;2.15;;;1.23;;
67063;SDS011;58476;48.072;11.970;2023-04-22T14:50:03;6.32;;;1.20;;
67063;SDS011;58476;48.072;11.970;2023-04-22T14:52:30;2.35;;;0.93;;